sensor_id;sensor_type;location;lat;lon;timestamp;P1;durP1;ratioP1;P2;durP2;ratioP2
51382;SDS011;37475;43.358;1.248;2023-04-06T00:01:55;8.27;;;5.07;;
51382;SDS011;37475;43.358;1.248;2023-04-06T00:04:21;8.30;;;4.60;;
51382;SDS011;37475;43.358;1.248;2023-04-06T00:06:46;8.23;;;4.30;;
51382;SDS011;37475;43.358;1.248;2023-04-06T00:09:12;8.27;;;4.30;;
51382;SDS011;37475;43.358;1.248;2023-04-06T00:11:38;7.72;;;4.32;;
51382;SDS011;37475;43.358;1.248;2023-04-06T00:14:04;7.03;;;4.10;;
51382;SDS011;37475;43.358;1.248;2023-04-06T00:16:30;9.38;;;4.18;;
51382;SDS011;37475;43.358;1.248;2023-04-06T00:18:55;7.75;;;3.92;;
51382;SDS011;37475;43.358;1.248;2023-04-06T00:21:21;8.25;;;4.60;;
51382;SDS011;37475;43.358;1.248;2023-04-06T00:23:48;8.10;;;4.30;;
51382;SDS011;37475;43.358;1.248;2023-04-06T00:26:13;7.50;;;4.40;;
51382;SDS011;37475;43.358;1.248;2023-04-06T00:28:39;7.72;;;4.60;;
51382;SDS011;37475;43.358;1.248;2023-04-06T00:31:05;8.20;;;4.00;;
51382;SDS011;37475;43.358;1.248;2023-04-06T00:33:31;7.90;;;4.25;;
51382;SDS011;37475;43.358;1.248;2023-04-06T00:35:57;7.20;;;3.97;;
51382;SDS011;37475;43.358;1.248;2023-04-06T00:38:23;7.53;;;3.80;;
51382;SDS011;37475;43.358;1.248;2023-04-06T00:40:49;6.85;;;3.70;;
51382;SDS011;37475;43.358;1.248;2023-04-06T00:43:15;5.93;;;3.47;;
51382;SDS011;37475;43.358;1.248;2023-04-06T00:45:41;7.10;;;3.38;;
51382;SDS011;37475;43.358;1.248;2023-04-06T00:48:07;6.70;;;3.47;;
51382;SDS011;37475;43.358;1.248;2023-04-06T00:50:34;6.22;;;3.50;;
51382;SDS011;37475;43.358;1.248;2023-04-06T00:53:00;7.15;;;3.58;;
51382;SDS011;37475;43.358;1.248;2023-04-06T00:55:27;6.45;;;3.95;;
51382;SDS011;37475;43.358;1.248;2023-04-06T00:57:53;7.28;;;3.80;;
51382;SDS011;37475;43.358;1.248;2023-04-06T01:00:22;6.30;;;3.70;;
51382;SDS011;37475;43.358;1.248;2023-04-06T01:02:48;9.73;;;3.90;;
51382;SDS011;37475;43.358;1.248;2023-04-06T01:05:14;8.52;;;3.83;;
51382;SDS011;37475;43.358;1.248;2023-04-06T01:07:40;8.15;;;3.92;;
51382;SDS011;37475;43.358;1.248;2023-04-06T01:10:06;7.82;;;3.50;;
51382;SDS011;37475;43.358;1.248;2023-04-06T01:12:33;8.43;;;4.13;;
51382;SDS011;37475;43.358;1.248;2023-04-06T01:14:59;6.28;;;3.97;;
51382;SDS011;37475;43.358;1.248;2023-04-06T01:17:25;7.80;;;4.30;;
51382;SDS011;37475;43.358;1.248;2023-04-06T01:19:50;10.30;;;4.28;;
51382;SDS011;37475;43.358;1.248;2023-04-06T01:22:18;7.45;;;4.05;;
51382;SDS011;37475;43.358;1.248;2023-04-06T01:24:44;8.15;;;3.90;;
51382;SDS011;37475;43.358;1.248;2023-04-06T01:27:11;7.10;;;4.03;;
51382;SDS011;37475;43.358;1.248;2023-04-06T01:29:38;7.80;;;4.22;;
51382;SDS011;37475;43.358;1.248;2023-04-06T01:32:06;8.43;;;4.10;;
51382;SDS011;37475;43.358;1.248;2023-04-06T01:34:32;6.78;;;3.88;;
51382;SDS011;37475;43.358;1.248;2023-04-06T01:36:58;6.80;;;4.22;;
51382;SDS011;37475;43.358;1.248;2023-04-06T01:39:24;8.82;;;4.50;;
51382;SDS011;37475;43.358;1.248;2023-04-06T01:41:51;8.90;;;4.28;;
51382;SDS011;37475;43.358;1.248;2023-04-06T01:44:17;9.10;;;4.43;;
51382;SDS011;37475;43.358;1.248;2023-04-06T01:46:46;6.88;;;3.65;;
51382;SDS011;37475;43.358;1.248;2023-04-06T01:49:12;6.85;;;3.78;;
51382;SDS011;37475;43.358;1.248;2023-04-06T01:51:38;6.88;;;3.88;;
51382;SDS011;37475;43.358;1.248;2023-04-06T01:54:04;8.48;;;4.10;;
51382;SDS011;37475;43.358;1.248;2023-04-06T01:56:30;7.93;;;4.03;;
51382;SDS011;37475;43.358;1.248;2023-04-06T01:58:56;7.90;;;3.88;;
51382;SDS011;37475;43.358;1.248;2023-04-06T02:01:22;9.32;;;4.30;;
51382;SDS011;37475;43.358;1.248;2023-04-06T02:03:47;10.07;;;4.22;;
51382;SDS011;37475;43.358;1.248;2023-04-06T02:06:13;8.15;;;4.22;;
51382;SDS011;37475;43.358;1.248;2023-04-06T02:08:39;8.43;;;4.03;;
51382;SDS011;37475;43.358;1.248;2023-04-06T02:11:05;8.85;;;4.00;;
51382;SDS011;37475;43.358;1.248;2023-04-06T02:13:31;8.23;;;3.95;;
51382;SDS011;37475;43.358;1.248;2023-04-06T02:15:57;7.75;;;4.03;;
51382;SDS011;37475;43.358;1.248;2023-04-06T02:18:23;6.78;;;3.67;;
51382;SDS011;37475;43.358;1.248;2023-04-06T02:20:48;6.97;;;3.88;;
51382;SDS011;37475;43.358;1.248;2023-04-06T02:23:14;6.38;;;3.70;;
51382;SDS011;37475;43.358;1.248;2023-04-06T02:25:40;9.48;;;3.60;;
51382;SDS011;37475;43.358;1.248;2023-04-06T02:28:06;7.05;;;3.30;;
51382;SDS011;37475;43.358;1.248;2023-04-06T02:30:32;6.65;;;3.28;;
51382;SDS011;37475;43.358;1.248;2023-04-06T02:33:01;7.65;;;3.28;;
51382;SDS011;37475;43.358;1.248;2023-04-06T02:35:28;7.30;;;3.40;;
51382;SDS011;37475;43.358;1.248;2023-04-06T02:37:55;8.15;;;3.47;;
51382;SDS011;37475;43.358;1.248;2023-04-06T02:40:21;6.65;;;3.72;;
51382;SDS011;37475;43.358;1.248;2023-04-06T02:42:47;5.78;;;3.20;;
51382;SDS011;37475;43.358;1.248;2023-04-06T02:45:13;6.57;;;3.53;;
51382;SDS011;37475;43.358;1.248;2023-04-06T02:47:39;6.72;;;3.33;;
51382;SDS011;37475;43.358;1.248;2023-04-06T02:50:05;5.45;;;3.00;;
51382;SDS011;37475;43.358;1.248;2023-04-06T02:52:31;6.93;;;3.33;;
51382;SDS011;37475;43.358;1.248;2023-04-06T02:54:57;6.13;;;3.28;;
51382;SDS011;37475;43.358;1.248;2023-04-06T02:57:23;6.50;;;3.20;;
51382;SDS011;37475;43.358;1.248;2023-04-06T02:59:49;6.32;;;3.35;;
51382;SDS011;37475;43.358;1.248;2023-04-06T03:02:15;6.72;;;3.40;;
51382;SDS011;37475;43.358;1.248;2023-04-06T03:04:41;7.47;;;4.18;;
51382;SDS011;37475;43.358;1.248;2023-04-06T03:07:07;8.88;;;4.20;;
51382;SDS011;37475;43.358;1.248;2023-04-06T03:09:33;10.02;;;4.65;;
51382;SDS011;37475;43.358;1.248;2023-04-06T03:12:02;10.32;;;4.65;;
51382;SDS011;37475;43.358;1.248;2023-04-06T03:14:28;9.02;;;4.82;;
51382;SDS011;37475;43.358;1.248;2023-04-06T03:16:54;8.48;;;4.28;;
51382;SDS011;37475;43.358;1.248;2023-04-06T03:19:19;8.07;;;3.90;;
51382;SDS011;37475;43.358;1.248;2023-04-06T03:21:45;7.50;;;3.92;;
51382;SDS011;37475;43.358;1.248;2023-04-06T03:24:12;6.82;;;3.80;;
51382;SDS011;37475;43.358;1.248;2023-04-06T03:26:38;6.65;;;4.05;;
51382;SDS011;37475;43.358;1.248;2023-04-06T03:29:04;7.68;;;4.10;;
51382;SDS011;37475;43.358;1.248;2023-04-06T03:31:30;8.20;;;3.88;;
51382;SDS011;37475;43.358;1.248;2023-04-06T03:33:56;9.90;;;3.90;;
51382;SDS011;37475;43.358;1.248;2023-04-06T03:36:22;6.95;;;3.80;;
51382;SDS011;37475;43.358;1.248;2023-04-06T03:38:48;6.32;;;3.95;;
51382;SDS011;37475;43.358;1.248;2023-04-06T03:41:14;8.75;;;3.88;;
51382;SDS011;37475;43.358;1.248;2023-04-06T03:43:40;7.63;;;3.97;;
51382;SDS011;37475;43.358;1.248;2023-04-06T03:46:06;9.18;;;4.07;;
51382;SDS011;37475;43.358;1.248;2023-04-06T03:48:32;8.55;;;3.88;;
51382;SDS011;37475;43.358;1.248;2023-04-06T03:50:58;7.70;;;4.28;;
51382;SDS011;37475;43.358;1.248;2023-04-06T03:53:23;6.60;;;3.70;;
51382;SDS011;37475;43.358;1.248;2023-04-06T03:55:50;6.28;;;4.00;;
51382;SDS011;37475;43.358;1.248;2023-04-06T03:58:15;8.65;;;3.83;;
51382;SDS011;37475;43.358;1.248;2023-04-06T04:00:41;9.55;;;4.00;;
51382;SDS011;37475;43.358;1.248;2023-04-06T04:03:07;6.50;;;3.85;;
51382;SDS011;37475;43.358;1.248;2023-04-06T04:05:33;8.30;;;4.03;;
51382;SDS011;37475;43.358;1.248;2023-04-06T04:07:58;8.35;;;3.72;;
51382;SDS011;37475;43.358;1.248;2023-04-06T04:10:24;9.13;;;4.10;;
51382;SDS011;37475;43.358;1.248;2023-04-06T04:12:50;7.53;;;4.32;;
51382;SDS011;37475;43.358;1.248;2023-04-06T04:15:16;7.90;;;3.92;;
51382;SDS011;37475;43.358;1.248;2023-04-06T04:17:41;6.93;;;3.75;;
51382;SDS011;37475;43.358;1.248;2023-04-06T04:20:11;7.43;;;3.95;;
51382;SDS011;37475;43.358;1.248;2023-04-06T04:22:38;7.78;;;3.58;;
51382;SDS011;37475;43.358;1.248;2023-04-06T04:25:05;7.90;;;4.40;;
51382;SDS011;37475;43.358;1.248;2023-04-06T04:27:31;6.88;;;3.50;;
51382;SDS011;37475;43.358;1.248;2023-04-06T04:29:57;7.07;;;3.83;;
51382;SDS011;37475;43.358;1.248;2023-04-06T04:32:23;6.75;;;3.70;;
51382;SDS011;37475;43.358;1.248;2023-04-06T04:34:52;7.80;;;3.97;;
51382;SDS011;37475;43.358;1.248;2023-04-06T04:37:18;6.03;;;3.40;;
51382;SDS011;37475;43.358;1.248;2023-04-06T04:39:45;7.88;;;3.83;;
51382;SDS011;37475;43.358;1.248;2023-04-06T04:42:11;7.05;;;3.75;;
51382;SDS011;37475;43.358;1.248;2023-04-06T04:44:37;5.90;;;3.63;;
51382;SDS011;37475;43.358;1.248;2023-04-06T04:47:03;7.95;;;3.95;;
51382;SDS011;37475;43.358;1.248;2023-04-06T04:49:28;8.45;;;4.22;;
51382;SDS011;37475;43.358;1.248;2023-04-06T04:51:54;7.50;;;3.85;;
51382;SDS011;37475;43.358;1.248;2023-04-06T04:54:20;7.75;;;4.07;;
51382;SDS011;37475;43.358;1.248;2023-04-06T04:56:46;7.78;;;4.25;;
51382;SDS011;37475;43.358;1.248;2023-04-06T04:59:12;6.90;;;3.72;;
51382;SDS011;37475;43.358;1.248;2023-04-06T05:01:38;6.30;;;3.78;;
51382;SDS011;37475;43.358;1.248;2023-04-06T05:04:03;8.73;;;4.05;;
51382;SDS011;37475;43.358;1.248;2023-04-06T05:06:29;7.28;;;3.75;;
51382;SDS011;37475;43.358;1.248;2023-04-06T05:08:55;10.57;;;3.90;;
51382;SDS011;37475;43.358;1.248;2023-04-06T05:11:21;7.18;;;3.85;;
51382;SDS011;37475;43.358;1.248;2023-04-06T05:13:47;7.32;;;3.45;;
51382;SDS011;37475;43.358;1.248;2023-04-06T05:16:13;7.10;;;3.67;;
51382;SDS011;37475;43.358;1.248;2023-04-06T05:18:39;6.50;;;3.50;;
51382;SDS011;37475;43.358;1.248;2023-04-06T05:21:04;7.80;;;3.55;;
51382;SDS011;37475;43.358;1.248;2023-04-06T05:23:30;7.65;;;3.65;;
51382;SDS011;37475;43.358;1.248;2023-04-06T05:25:56;6.20;;;2.90;;
51382;SDS011;37475;43.358;1.248;2023-04-06T05:28:22;6.45;;;3.40;;
51382;SDS011;37475;43.358;1.248;2023-04-06T05:30:48;7.70;;;3.30;;
51382;SDS011;37475;43.358;1.248;2023-04-06T05:33:13;6.57;;;3.40;;
51382;SDS011;37475;43.358;1.248;2023-04-06T05:35:40;7.43;;;3.53;;
51382;SDS011;37475;43.358;1.248;2023-04-06T05:38:07;7.32;;;3.60;;
51382;SDS011;37475;43.358;1.248;2023-04-06T05:40:35;6.38;;;3.50;;
51382;SDS011;37475;43.358;1.248;2023-04-06T05:43:02;6.82;;;3.65;;
51382;SDS011;37475;43.358;1.248;2023-04-06T05:45:28;6.50;;;3.67;;
51382;SDS011;37475;43.358;1.248;2023-04-06T05:47:55;6.88;;;4.00;;
51382;SDS011;37475;43.358;1.248;2023-04-06T05:50:21;6.78;;;3.97;;
51382;SDS011;37475;43.358;1.248;2023-04-06T05:52:47;7.93;;;4.07;;
51382;SDS011;37475;43.358;1.248;2023-04-06T05:55:13;8.13;;;4.47;;
51382;SDS011;37475;43.358;1.248;2023-04-06T05:57:39;5.95;;;3.55;;
51382;SDS011;37475;43.358;1.248;2023-04-06T06:00:05;6.80;;;3.50;;
51382;SDS011;37475;43.358;1.248;2023-04-06T06:02:35;7.70;;;3.83;;
51382;SDS011;37475;43.358;1.248;2023-04-06T06:05:00;7.88;;;4.10;;
51382;SDS011;37475;43.358;1.248;2023-04-06T06:07:27;6.70;;;3.80;;
51382;SDS011;37475;43.358;1.248;2023-04-06T06:09:56;7.65;;;4.13;;
51382;SDS011;37475;43.358;1.248;2023-04-06T06:12:23;6.85;;;4.10;;
51382;SDS011;37475;43.358;1.248;2023-04-06T06:14:49;6.90;;;4.20;;
51382;SDS011;37475;43.358;1.248;2023-04-06T06:17:14;6.88;;;3.97;;
51382;SDS011;37475;43.358;1.248;2023-04-06T06:19:40;10.63;;;4.55;;
51382;SDS011;37475;43.358;1.248;2023-04-06T06:22:06;9.45;;;4.53;;
51382;SDS011;37475;43.358;1.248;2023-04-06T06:24:32;11.52;;;5.05;;
51382;SDS011;37475;43.358;1.248;2023-04-06T06:26:58;8.18;;;4.80;;
51382;SDS011;37475;43.358;1.248;2023-04-06T06:29:24;10.80;;;4.80;;
51382;SDS011;37475;43.358;1.248;2023-04-06T06:31:49;7.78;;;4.97;;
51382;SDS011;37475;43.358;1.248;2023-04-06T06:34:15;10.00;;;4.70;;
51382;SDS011;37475;43.358;1.248;2023-04-06T06:36:41;9.15;;;4.70;;
51382;SDS011;37475;43.358;1.248;2023-04-06T06:39:07;8.77;;;4.80;;
51382;SDS011;37475;43.358;1.248;2023-04-06T06:41:33;10.07;;;5.20;;
51382;SDS011;37475;43.358;1.248;2023-04-06T06:43:59;10.00;;;4.80;;
51382;SDS011;37475;43.358;1.248;2023-04-06T06:46:25;11.18;;;4.68;;
51382;SDS011;37475;43.358;1.248;2023-04-06T06:48:50;14.05;;;5.20;;
51382;SDS011;37475;43.358;1.248;2023-04-06T06:51:16;9.63;;;4.60;;
51382;SDS011;37475;43.358;1.248;2023-04-06T06:53:42;11.25;;;4.72;;
51382;SDS011;37475;43.358;1.248;2023-04-06T06:56:08;15.15;;;5.10;;
51382;SDS011;37475;43.358;1.248;2023-04-06T06:58:33;12.45;;;4.25;;
51382;SDS011;37475;43.358;1.248;2023-04-06T07:00:59;13.15;;;4.50;;
51382;SDS011;37475;43.358;1.248;2023-04-06T07:03:25;14.02;;;4.70;;
51382;SDS011;37475;43.358;1.248;2023-04-06T07:05:51;9.40;;;5.25;;
51382;SDS011;37475;43.358;1.248;2023-04-06T07:08:20;17.30;;;7.82;;
51382;SDS011;37475;43.358;1.248;2023-04-06T07:10:48;17.80;;;7.75;;
51382;SDS011;37475;43.358;1.248;2023-04-06T07:13:17;27.00;;;9.93;;
51382;SDS011;37475;43.358;1.248;2023-04-06T07:15:47;12.45;;;6.63;;
51382;SDS011;37475;43.358;1.248;2023-04-06T07:18:16;13.38;;;6.13;;
51382;SDS011;37475;43.358;1.248;2023-04-06T07:20:45;12.80;;;5.53;;
51382;SDS011;37475;43.358;1.248;2023-04-06T07:23:12;12.07;;;5.15;;
51382;SDS011;37475;43.358;1.248;2023-04-06T07:25:37;12.52;;;5.40;;
51382;SDS011;37475;43.358;1.248;2023-04-06T07:28:03;12.68;;;5.10;;
51382;SDS011;37475;43.358;1.248;2023-04-06T07:30:29;9.07;;;4.93;;
51382;SDS011;37475;43.358;1.248;2023-04-06T07:32:55;10.25;;;4.78;;
51382;SDS011;37475;43.358;1.248;2023-04-06T07:35:26;8.38;;;5.28;;
51382;SDS011;37475;43.358;1.248;2023-04-06T07:37:53;6.85;;;4.20;;
51382;SDS011;37475;43.358;1.248;2023-04-06T07:40:19;13.43;;;4.65;;
51382;SDS011;37475;43.358;1.248;2023-04-06T07:42:45;10.18;;;4.15;;
51382;SDS011;37475;43.358;1.248;2023-04-06T07:45:12;12.15;;;4.85;;
51382;SDS011;37475;43.358;1.248;2023-04-06T07:47:38;10.63;;;5.10;;
51382;SDS011;37475;43.358;1.248;2023-04-06T07:50:04;9.57;;;5.15;;
51382;SDS011;37475;43.358;1.248;2023-04-06T07:52:30;12.23;;;5.20;;
51382;SDS011;37475;43.358;1.248;2023-04-06T07:54:57;11.70;;;5.07;;
51382;SDS011;37475;43.358;1.248;2023-04-06T07:57:23;13.27;;;5.38;;
51382;SDS011;37475;43.358;1.248;2023-04-06T07:59:50;12.88;;;5.22;;
51382;SDS011;37475;43.358;1.248;2023-04-06T08:02:15;12.43;;;4.80;;
51382;SDS011;37475;43.358;1.248;2023-04-06T08:04:42;12.07;;;5.45;;
51382;SDS011;37475;43.358;1.248;2023-04-06T08:07:09;11.10;;;5.07;;
51382;SDS011;37475;43.358;1.248;2023-04-06T08:09:34;11.88;;;4.95;;
51382;SDS011;37475;43.358;1.248;2023-04-06T08:12:00;11.48;;;4.90;;
51382;SDS011;37475;43.358;1.248;2023-04-06T08:14:26;12.95;;;5.00;;
51382;SDS011;37475;43.358;1.248;2023-04-06T08:16:52;10.02;;;4.80;;
51382;SDS011;37475;43.358;1.248;2023-04-06T08:19:18;8.82;;;4.78;;
51382;SDS011;37475;43.358;1.248;2023-04-06T08:21:44;9.05;;;4.47;;
51382;SDS011;37475;43.358;1.248;2023-04-06T08:24:12;8.60;;;5.00;;
51382;SDS011;37475;43.358;1.248;2023-04-06T08:26:38;11.35;;;4.72;;
51382;SDS011;37475;43.358;1.248;2023-04-06T08:29:04;9.68;;;4.90;;
51382;SDS011;37475;43.358;1.248;2023-04-06T08:31:32;8.57;;;4.75;;
51382;SDS011;37475;43.358;1.248;2023-04-06T08:33:59;14.13;;;5.07;;
51382;SDS011;37475;43.358;1.248;2023-04-06T08:36:26;11.32;;;4.60;;
51382;SDS011;37475;43.358;1.248;2023-04-06T08:38:52;11.55;;;4.68;;
51382;SDS011;37475;43.358;1.248;2023-04-06T08:41:19;8.63;;;4.55;;
51382;SDS011;37475;43.358;1.248;2023-04-06T08:43:49;8.88;;;4.10;;
51382;SDS011;37475;43.358;1.248;2023-04-06T08:46:22;8.05;;;3.92;;
51382;SDS011;37475;43.358;1.248;2023-04-06T08:48:59;7.03;;;3.70;;
51382;SDS011;37475;43.358;1.248;2023-04-06T08:51:28;7.63;;;2.97;;
51382;SDS011;37475;43.358;1.248;2023-04-06T08:53:55;6.65;;;3.58;;
51382;SDS011;37475;43.358;1.248;2023-04-06T08:56:26;8.48;;;3.83;;
51382;SDS011;37475;43.358;1.248;2023-04-06T08:58:53;10.93;;;3.60;;
51382;SDS011;37475;43.358;1.248;2023-04-06T09:01:21;6.90;;;3.50;;
51382;SDS011;37475;43.358;1.248;2023-04-06T09:03:54;4.40;;;2.95;;
51382;SDS011;37475;43.358;1.248;2023-04-06T09:06:22;7.07;;;2.72;;
51382;SDS011;37475;43.358;1.248;2023-04-06T09:08:51;5.70;;;3.03;;
51382;SDS011;37475;43.358;1.248;2023-04-06T09:11:17;4.88;;;2.92;;
51382;SDS011;37475;43.358;1.248;2023-04-06T09:13:47;5.35;;;2.97;;
51382;SDS011;37475;43.358;1.248;2023-04-06T09:16:15;6.88;;;3.10;;
51382;SDS011;37475;43.358;1.248;2023-04-06T09:18:41;6.07;;;2.40;;
51382;SDS011;37475;43.358;1.248;2023-04-06T09:21:08;6.85;;;2.83;;
51382;SDS011;37475;43.358;1.248;2023-04-06T09:23:35;5.60;;;2.72;;
51382;SDS011;37475;43.358;1.248;2023-04-06T09:28:47;6.75;;;2.60;;
51382;SDS011;37475;43.358;1.248;2023-04-06T09:31:15;5.75;;;2.50;;
51382;SDS011;37475;43.358;1.248;2023-04-06T09:33:46;6.43;;;2.92;;
51382;SDS011;37475;43.358;1.248;2023-04-06T09:36:13;5.85;;;2.80;;
51382;SDS011;37475;43.358;1.248;2023-04-06T09:39:00;5.50;;;2.70;;
51382;SDS011;37475;43.358;1.248;2023-04-06T09:41:29;6.82;;;2.90;;
51382;SDS011;37475;43.358;1.248;2023-04-06T09:44:08;6.40;;;2.70;;
51382;SDS011;37475;43.358;1.248;2023-04-06T09:46:38;8.07;;;2.90;;
51382;SDS011;37475;43.358;1.248;2023-04-06T09:49:09;7.63;;;2.90;;
51382;SDS011;37475;43.358;1.248;2023-04-06T09:51:38;5.38;;;2.38;;
51382;SDS011;37475;43.358;1.248;2023-04-06T09:54:07;5.28;;;2.40;;
51382;SDS011;37475;43.358;1.248;2023-04-06T09:56:39;6.50;;;2.60;;
51382;SDS011;37475;43.358;1.248;2023-04-06T09:59:45;7.03;;;2.72;;
51382;SDS011;37475;43.358;1.248;2023-04-06T10:07:59;5.90;;;2.65;;
51382;SDS011;37475;43.358;1.248;2023-04-06T10:10:32;4.95;;;2.65;;
51382;SDS011;37475;43.358;1.248;2023-04-06T10:12:58;5.32;;;2.78;;
51382;SDS011;37475;43.358;1.248;2023-04-06T10:15:25;6.25;;;2.97;;
51382;SDS011;37475;43.358;1.248;2023-04-06T10:17:53;7.18;;;2.40;;
51382;SDS011;37475;43.358;1.248;2023-04-06T10:20:28;7.10;;;2.55;;
51382;SDS011;37475;43.358;1.248;2023-04-06T10:25:53;4.95;;;2.30;;
51382;SDS011;37475;43.358;1.248;2023-04-06T10:28:22;5.20;;;2.22;;
51382;SDS011;37475;43.358;1.248;2023-04-06T10:30:48;4.57;;;2.20;;
51382;SDS011;37475;43.358;1.248;2023-04-06T10:33:18;7.03;;;2.30;;
51382;SDS011;37475;43.358;1.248;2023-04-06T10:35:45;6.43;;;2.20;;
51382;SDS011;37475;43.358;1.248;2023-04-06T10:38:11;8.27;;;2.30;;
51382;SDS011;37475;43.358;1.248;2023-04-06T10:40:39;4.85;;;2.38;;
51382;SDS011;37475;43.358;1.248;2023-04-06T10:43:21;5.13;;;2.33;;
51382;SDS011;37475;43.358;1.248;2023-04-06T10:45:57;4.47;;;2.15;;
51382;SDS011;37475;43.358;1.248;2023-04-06T10:48:36;5.10;;;2.13;;
51382;SDS011;37475;43.358;1.248;2023-04-06T10:51:10;7.53;;;2.13;;
51382;SDS011;37475;43.358;1.248;2023-04-06T10:53:47;5.95;;;1.83;;
51382;SDS011;37475;43.358;1.248;2023-04-06T10:56:14;5.03;;;1.58;;
51382;SDS011;37475;43.358;1.248;2023-04-06T10:58:49;4.50;;;1.98;;
51382;SDS011;37475;43.358;1.248;2023-04-06T11:01:19;4.47;;;2.03;;
51382;SDS011;37475;43.358;1.248;2023-04-06T11:03:47;4.85;;;1.95;;
51382;SDS011;37475;43.358;1.248;2023-04-06T11:08:48;2.95;;;1.75;;
51382;SDS011;37475;43.358;1.248;2023-04-06T11:11:16;4.50;;;1.90;;
51382;SDS011;37475;43.358;1.248;2023-04-06T11:18:53;4.75;;;2.05;;
51382;SDS011;37475;43.358;1.248;2023-04-06T11:21:35;3.42;;;1.60;;
51382;SDS011;37475;43.358;1.248;2023-04-06T11:24:16;4.38;;;1.80;;
51382;SDS011;37475;43.358;1.248;2023-04-06T11:26:48;4.18;;;1.80;;
51382;SDS011;37475;43.358;1.248;2023-04-06T11:29:21;5.22;;;2.00;;
51382;SDS011;37475;43.358;1.248;2023-04-06T11:31:51;4.65;;;1.90;;
51382;SDS011;37475;43.358;1.248;2023-04-06T11:34:28;4.35;;;1.80;;
51382;SDS011;37475;43.358;1.248;2023-04-06T11:37:00;5.05;;;1.77;;
51382;SDS011;37475;43.358;1.248;2023-04-06T11:39:30;3.97;;;1.50;;
51382;SDS011;37475;43.358;1.248;2023-04-06T11:42:01;3.50;;;1.52;;
51382;SDS011;37475;43.358;1.248;2023-04-06T11:44:34;2.70;;;1.33;;
51382;SDS011;37475;43.358;1.248;2023-04-06T11:47:07;4.65;;;1.45;;
51382;SDS011;37475;43.358;1.248;2023-04-06T11:49:38;5.10;;;1.70;;
51382;SDS011;37475;43.358;1.248;2023-04-06T11:52:22;5.07;;;1.50;;
51382;SDS011;37475;43.358;1.248;2023-04-06T11:54:51;2.63;;;1.10;;
51382;SDS011;37475;43.358;1.248;2023-04-06T11:57:19;3.42;;;1.42;;
51382;SDS011;37475;43.358;1.248;2023-04-06T11:59:48;3.42;;;1.33;;
51382;SDS011;37475;43.358;1.248;2023-04-06T12:02:14;2.92;;;1.20;;
51382;SDS011;37475;43.358;1.248;2023-04-06T12:04:40;2.83;;;1.10;;
51382;SDS011;37475;43.358;1.248;2023-04-06T12:07:06;2.30;;;1.17;;
51382;SDS011;37475;43.358;1.248;2023-04-06T12:09:32;3.95;;;1.38;;
51382;SDS011;37475;43.358;1.248;2023-04-06T12:11:59;3.38;;;1.10;;
51382;SDS011;37475;43.358;1.248;2023-04-06T12:14:25;3.35;;;1.10;;
51382;SDS011;37475;43.358;1.248;2023-04-06T12:16:51;3.42;;;1.25;;
51382;SDS011;37475;43.358;1.248;2023-04-06T12:19:17;4.15;;;1.20;;
51382;SDS011;37475;43.358;1.248;2023-04-06T12:21:43;2.42;;;1.17;;
51382;SDS011;37475;43.358;1.248;2023-04-06T12:24:08;3.45;;;0.95;;
51382;SDS011;37475;43.358;1.248;2023-04-06T12:26:34;3.08;;;1.00;;
51382;SDS011;37475;43.358;1.248;2023-04-06T12:29:02;2.88;;;1.13;;
51382;SDS011;37475;43.358;1.248;2023-04-06T12:31:34;2.97;;;1.00;;
51382;SDS011;37475;43.358;1.248;2023-04-06T12:34:01;2.50;;;1.10;;
51382;SDS011;37475;43.358;1.248;2023-04-06T12:36:28;3.95;;;1.00;;
51382;SDS011;37475;43.358;1.248;2023-04-06T12:38:54;1.95;;;1.00;;
51382;SDS011;37475;43.358;1.248;2023-04-06T12:41:20;2.08;;;0.98;;
51382;SDS011;37475;43.358;1.248;2023-04-06T12:43:46;2.22;;;0.80;;
51382;SDS011;37475;43.358;1.248;2023-04-06T12:46:14;3.08;;;1.10;;
51382;SDS011;37475;43.358;1.248;2023-04-06T12:48:40;3.22;;;1.20;;
51382;SDS011;37475;43.358;1.248;2023-04-06T12:51:06;4.30;;;1.30;;
51382;SDS011;37475;43.358;1.248;2023-04-06T12:53:32;6.57;;;1.08;;
51382;SDS011;37475;43.358;1.248;2023-04-06T12:56:00;1.42;;;0.73;;
51382;SDS011;37475;43.358;1.248;2023-04-06T12:58:26;2.20;;;0.80;;
51382;SDS011;37475;43.358;1.248;2023-04-06T13:00:53;1.40;;;0.70;;
51382;SDS011;37475;43.358;1.248;2023-04-06T13:03:21;2.40;;;0.77;;
51382;SDS011;37475;43.358;1.248;2023-04-06T13:05:47;1.85;;;0.80;;
51382;SDS011;37475;43.358;1.248;2023-04-06T13:08:15;1.63;;;0.80;;
51382;SDS011;37475;43.358;1.248;2023-04-06T13:10:52;1.83;;;0.90;;
51382;SDS011;37475;43.358;1.248;2023-04-06T13:13:22;5.63;;;1.15;;
51382;SDS011;37475;43.358;1.248;2023-04-06T13:15:53;3.08;;;0.90;;
51382;SDS011;37475;43.358;1.248;2023-04-06T13:18:20;2.58;;;1.00;;
51382;SDS011;37475;43.358;1.248;2023-04-06T13:20:48;2.53;;;0.95;;
51382;SDS011;37475;43.358;1.248;2023-04-06T13:23:14;2.08;;;0.90;;
51382;SDS011;37475;43.358;1.248;2023-04-06T13:25:40;3.72;;;1.00;;
51382;SDS011;37475;43.358;1.248;2023-04-06T13:28:07;2.53;;;1.00;;
51382;SDS011;37475;43.358;1.248;2023-04-06T13:30:34;2.92;;;0.70;;
51382;SDS011;37475;43.358;1.248;2023-04-06T13:33:01;1.30;;;0.80;;
51382;SDS011;37475;43.358;1.248;2023-04-06T13:35:27;2.20;;;0.90;;
51382;SDS011;37475;43.358;1.248;2023-04-06T13:37:53;5.20;;;0.90;;
51382;SDS011;37475;43.358;1.248;2023-04-06T13:40:19;2.58;;;0.70;;
51382;SDS011;37475;43.358;1.248;2023-04-06T13:42:46;1.02;;;0.65;;
51382;SDS011;37475;43.358;1.248;2023-04-06T13:45:12;1.90;;;0.77;;
51382;SDS011;37475;43.358;1.248;2023-04-06T13:47:38;1.50;;;0.70;;
51382;SDS011;37475;43.358;1.248;2023-04-06T13:50:04;2.72;;;0.80;;
51382;SDS011;37475;43.358;1.248;2023-04-06T13:52:31;1.20;;;0.68;;
51382;SDS011;37475;43.358;1.248;2023-04-06T13:54:57;2.20;;;0.80;;
51382;SDS011;37475;43.358;1.248;2023-04-06T13:57:23;3.70;;;0.70;;
51382;SDS011;37475;43.358;1.248;2023-04-06T13:59:48;1.98;;;0.70;;
51382;SDS011;37475;43.358;1.248;2023-04-06T14:02:17;4.07;;;0.70;;
51382;SDS011;37475;43.358;1.248;2023-04-06T14:04:44;1.67;;;0.70;;
51382;SDS011;37475;43.358;1.248;2023-04-06T14:07:10;2.08;;;1.00;;
51382;SDS011;37475;43.358;1.248;2023-04-06T14:09:36;2.55;;;0.80;;
51382;SDS011;37475;43.358;1.248;2023-04-06T14:12:01;2.28;;;0.60;;
51382;SDS011;37475;43.358;1.248;2023-04-06T14:14:27;2.67;;;0.65;;
51382;SDS011;37475;43.358;1.248;2023-04-06T14:16:53;1.70;;;0.50;;
51382;SDS011;37475;43.358;1.248;2023-04-06T14:19:19;2.35;;;0.50;;
51382;SDS011;37475;43.358;1.248;2023-04-06T14:21:46;1.38;;;0.52;;
51382;SDS011;37475;43.358;1.248;2023-04-06T14:24:14;1.70;;;0.60;;
51382;SDS011;37475;43.358;1.248;2023-04-06T14:26:41;2.28;;;0.50;;
51382;SDS011;37475;43.358;1.248;2023-04-06T14:29:08;1.13;;;0.60;;
51382;SDS011;37475;43.358;1.248;2023-04-06T14:31:34;1.83;;;0.68;;
51382;SDS011;37475;43.358;1.248;2023-04-06T14:34:00;3.33;;;0.65;;
51382;SDS011;37475;43.358;1.248;2023-04-06T14:36:28;1.48;;;0.55;;
51382;SDS011;37475;43.358;1.248;2023-04-06T14:39:01;1.60;;;0.70;;
51382;SDS011;37475;43.358;1.248;2023-04-06T14:41:31;4.68;;;0.90;;
51382;SDS011;37475;43.358;1.248;2023-04-06T14:43:57;1.90;;;0.70;;
51382;SDS011;37475;43.358;1.248;2023-04-06T14:46:24;2.35;;;0.60;;
51382;SDS011;37475;43.358;1.248;2023-04-06T14:48:50;1.33;;;0.50;;
51382;SDS011;37475;43.358;1.248;2023-04-06T14:51:16;0.85;;;0.50;;
51382;SDS011;37475;43.358;1.248;2023-04-06T14:53:42;2.25;;;0.50;;
51382;SDS011;37475;43.358;1.248;2023-04-06T14:56:08;1.17;;;0.55;;
51382;SDS011;37475;43.358;1.248;2023-04-06T14:58:34;2.55;;;0.50;;
51382;SDS011;37475;43.358;1.248;2023-04-06T15:01:00;1.83;;;0.50;;
51382;SDS011;37475;43.358;1.248;2023-04-06T15:03:27;1.13;;;0.60;;
51382;SDS011;37475;43.358;1.248;2023-04-06T15:05:54;2.70;;;0.60;;